Salida, CO

8:46 AM MST on February 27, 2017 (GMT -0700)
Salida

Weather History for KANK - April, 2013

Change the Weather History Date:

Monday, April 15, 2013

  Actual Average (KGUC) Record (KGUC)
Temperature  
Mean Temperature 45 °F -  
Max Temperature 59 °F 50 °F 64 °F (2002)
Min Temperature 31 °F 22 °F 15 °F (2014)
Degree Days  
Heating Degree Days 20    
Moisture  
Dew Point 21 °F    
Average Humidity 45    
Maximum Humidity 66    
Minimum Humidity 22    
Precipitation  
Precipitation 0.00 in - - ()
Sea Level Pressure  
Sea Level Pressure 29.75 in    
Wind  
Wind Speed 14 mph (ESE)    
Max Wind Speed 24 mph    
Max Gust Speed 37 mph    
Visibility 10 miles    
Events      
Averages and records for this station are not official NWS values.
T = Trace of Precipitation, MM = Missing Value Source: NWS Daily Summary

Daily Weather History Graph

Daily Weather History Graph

Search for Another Location

Airport or City:

Trip Planner

Search our weather history database for the weather conditions in past years. The results will help you decide how hot, cold, wet, or windy it might be!

Date:

Astronomy

Apr. 15, 2013 Rise Set
Actual Time 6:27 AM MDT 7:41 PM MDT
Civil Twilight 6:00 AM MDT 8:08 PM MDT
Nautical Twilight 5:27 AM MDT 8:41 PM MDT
Astronomical Twilight 4:53 AM MDT 9:15 PM MDT
Moon 9:58 AM MDT (4/15) No Moon Set
Length of Visible Light 14h 08m
Length of Day
13h 13m
Waxing Crescent, 25% of the Moon is Illuminated
Apr 15
Waxing Crescent
Apr 18
First Quarter
Apr 25
Full
May 2
Last Quarter
May 9
New

Hourly Weather History & Observations

Time (MDT) Temp. Windchill Dew Point Humidity Pressure Visibility Wind Dir Wind Speed Gust Speed Precip Events Conditions
12:15 AM 40.1 °F 31.0 °F 22.6 °F 50% 29.77 in 10.0 mi ESE 18.4 mph 28.8 mph N/A   Overcast
12:35 AM 39.4 °F 30.1 °F 19.4 °F 45% 29.78 in 10.0 mi ESE 18.4 mph 25.3 mph N/A   Overcast
12:55 AM 39.2 °F 31.2 °F 16.5 °F 40% 29.77 in 10.0 mi ESE 13.8 mph 25.3 mph N/A   Overcast
1:15 AM 38.7 °F 29.8 °F 15.3 °F 39% 29.78 in 10.0 mi ESE 16.1 mph 26.5 mph N/A   Overcast
1:35 AM 38.3 °F 30.5 °F 15.3 °F 39% 29.80 in 10.0 mi ESE 12.7 mph 21.9 mph N/A   Overcast
1:55 AM 37.8 °F 29.4 °F 14.7 °F 39% 29.80 in 10.0 mi ESE 13.8 mph 20.7 mph N/A   Overcast
2:15 AM 37.4 °F 28.2 °F 13.3 °F 37% 29.79 in 10.0 mi ESE 16.1 mph 25.3 mph N/A   Overcast
2:35 AM 36.7 °F 30.5 °F 13.5 °F 39% 29.78 in 10.0 mi ESE 8.1 mph 20.7 mph N/A   Overcast
2:55 AM 36.1 °F 27.7 °F 12.4 °F 38% 29.78 in 10.0 mi ESE 12.7 mph 21.9 mph N/A   Overcast
3:15 AM 36.1 °F 27.7 °F 11.3 °F 36% 29.76 in 10.0 mi SE 12.7 mph 26.5 mph N/A   Overcast
3:35 AM 34.7 °F 25.1 °F 10.0 °F 36% 29.75 in 10.0 mi SE 15.0 mph 24.2 mph N/A   Scattered Clouds
3:55 AM 33.4 °F 21.7 °F 8.4 °F 35% 29.76 in 10.0 mi SE 20.7 mph 31.1 mph N/A   Clear
4:15 AM 32.2 °F 20.0 °F 9.5 °F 39% 29.75 in 10.0 mi SE 20.7 mph 31.1 mph N/A   Clear
4:35 AM 32.2 °F 20.4 °F 7.9 °F 36% 29.75 in 10.0 mi SE 19.6 mph 27.6 mph N/A   Scattered Clouds
4:55 AM 32.2 °F 23.2 °F 8.6 °F 37% 29.75 in 10.0 mi SE 11.5 mph 27.6 mph N/A   Scattered Clouds
5:15 AM 32.0 °F 19.5 °F 8.8 °F 38% 29.74 in 10.0 mi SSE 21.9 mph 25.3 mph N/A   Scattered Clouds
5:35 AM 31.8 °F 21.0 °F 9.5 °F 39% 29.73 in 10.0 mi SE 16.1 mph 26.5 mph N/A   Scattered Clouds
5:55 AM 31.6 °F 23.1 °F 9.5 °F 40% 29.73 in 10.0 mi SSE 10.4 mph 18.4 mph N/A   Scattered Clouds
6:15 AM 31.1 °F 20.9 °F 9.9 °F 41% 29.73 in 10.0 mi SE 13.8 mph 23.0 mph N/A   Scattered Clouds
6:35 AM 31.1 °F 22.4 °F 10.4 °F 42% 29.74 in 10.0 mi SSE 10.4 mph 21.9 mph N/A   Scattered Clouds
6:55 AM 31.1 °F 23.1 °F 12.0 °F 45% 29.75 in 10.0 mi SE 9.2 mph 21.9 mph N/A   Scattered Clouds
7:15 AM 31.6 °F 21.2 °F 14.5 °F 49% 29.75 in 10.0 mi SSE 15.0 mph 19.6 mph N/A   Scattered Clouds
7:35 AM 32.0 °F 23.0 °F 16.7 °F 53% 29.77 in 10.0 mi ESE 11.5 mph 18.4 mph N/A   Scattered Clouds
7:55 AM 33.1 °F 24.4 °F 17.8 °F 53% 29.78 in 10.0 mi ESE 11.5 mph 18.4 mph N/A   Mostly Cloudy
8:15 AM 34.5 °F 27.3 °F 18.5 °F 52% 29.78 in 10.0 mi SE 9.2 mph - N/A   Overcast
8:35 AM 34.2 °F 25.2 °F 19.2 °F 54% 29.77 in 10.0 mi SE 12.7 mph 16.1 mph N/A   Overcast
8:55 AM 34.9 °F 27.7 °F 20.8 °F 57% 29.77 in 10.0 mi ESE 9.2 mph 17.3 mph N/A   Overcast
9:15 AM 35.6 °F 27.5 °F 21.0 °F 55% 29.76 in 10.0 mi SE 11.5 mph - N/A   Overcast
9:35 AM 36.7 °F 28.0 °F 21.4 °F 54% 29.75 in 10.0 mi ESE 13.8 mph 17.3 mph N/A   Mostly Cloudy
9:55 AM 38.3 °F 30.5 °F 21.9 °F 52% 29.75 in 10.0 mi SE 12.7 mph 18.4 mph N/A   Mostly Cloudy
10:15 AM 38.1 °F 30.7 °F 20.8 °F 50% 29.74 in 10.0 mi SSE 11.5 mph 18.4 mph N/A   Mostly Cloudy
10:35 AM 38.8 °F 31.2 °F 21.2 °F 49% 29.72 in 10.0 mi SE 12.7 mph 20.7 mph N/A   Mostly Cloudy
10:55 AM 39.9 °F 31.1 °F 21.2 °F 47% 29.70 in 10.0 mi ESE 17.3 mph 25.3 mph N/A   Overcast
11:15 AM 42.3 °F 35.9 °F 22.3 °F 45% 29.70 in 10.0 mi SE 11.5 mph 19.6 mph N/A   Overcast
11:35 AM 45.0 °F 37.9 °F 23.7 °F 43% 29.69 in 10.0 mi ESE 16.1 mph 25.3 mph N/A   Overcast
11:55 AM 46.4 °F 41.9 °F 23.0 °F 40% 29.69 in 10.0 mi SE 9.2 mph 21.9 mph N/A   Overcast
12:15 PM 48.2 °F - 24.1 °F 39% 29.70 in 10.0 mi North 6.9 mph 16.1 mph N/A   Overcast
12:35 PM 52.3 °F - 28.6 °F 40% 29.69 in 10.0 mi NE 3.5 mph - N/A   Mostly Cloudy
12:55 PM 53.8 °F - 30.7 °F 41% 29.68 in 10.0 mi NE 6.9 mph - N/A   Mostly Cloudy
1:15 PM 55.2 °F - 32.0 °F 41% 29.68 in 10.0 mi East 6.9 mph - N/A   Scattered Clouds
1:35 PM 57.2 °F - 30.4 °F 36% 29.66 in 10.0 mi ENE 5.8 mph - N/A   Mostly Cloudy
1:55 PM 56.7 °F - 29.5 °F 35% 29.68 in 10.0 mi WNW 13.8 mph - N/A   Overcast
2:15 PM 55.4 °F - 30.2 °F 38% 29.68 in 10.0 mi Calm Calm - N/A   Overcast
2:35 PM 59.7 °F - 22.3 °F 24% 29.67 in 10.0 mi South 15.0 mph 26.5 mph N/A   Mostly Cloudy
2:55 PM 59.0 °F - 21.4 °F 23% 29.67 in 10.0 mi SSW 17.3 mph 25.3 mph N/A   Overcast
3:15 PM 58.6 °F - 21.4 °F 24% 29.67 in 10.0 mi SSW 13.8 mph 27.6 mph N/A   Overcast
3:35 PM 59.2 °F - 22.1 °F 24% 29.67 in 10.0 mi SW 15.0 mph 25.3 mph N/A   Overcast
3:55 PM 59.0 °F - 20.1 °F 22% 29.67 in 10.0 mi SSW 15.0 mph 25.3 mph N/A   Overcast
4:15 PM 58.5 °F - 21.4 °F 24% 29.67 in 10.0 mi SW 10.4 mph 25.3 mph N/A   Overcast
4:35 PM 57.2 °F - 29.7 °F 35% 29.68 in 10.0 mi North 5.8 mph 20.7 mph N/A   Overcast
4:55 PM 54.0 °F - 32.0 °F 43% 29.68 in 10.0 mi NW 9.2 mph - N/A   Overcast
5:15 PM 52.5 °F - 32.0 °F 46% 29.68 in 10.0 mi NNW 17.3 mph - N/A   Mostly Cloudy
5:35 PM 49.3 °F - 32.0 °F 51% 29.70 in 10.0 mi NNW 20.7 mph 24.2 mph N/A   Mostly Cloudy
5:55 PM 47.5 °F - 30.7 °F 52% 29.70 in 10.0 mi NW 16.1 mph 25.3 mph N/A   Mostly Cloudy
6:15 PM 46.0 °F 38.8 °F 30.2 °F 54% 29.72 in 10.0 mi NW 18.4 mph 24.2 mph N/A   Mostly Cloudy
6:55 PM 44.6 °F 37.8 °F 30.2 °F 57% 29.74 in 10.0 mi NNW 15.0 mph 24.2 mph N/A   Scattered Clouds
7:15 PM 43.7 °F 35.7 °F 30.0 °F 59% 29.75 in 10.0 mi NNW 18.4 mph 24.2 mph N/A   Mostly Cloudy
7:35 PM 42.8 °F 34.5 °F 29.3 °F 59% 29.76 in 10.0 mi NNW 18.4 mph - N/A   Mostly Cloudy
7:55 PM 42.1 °F 34.5 °F 29.3 °F 61% 29.77 in 10.0 mi NNW 15.0 mph 20.7 mph N/A   Mostly Cloudy
8:15 PM 41.9 °F 34.6 °F 29.3 °F 61% 29.78 in 10.0 mi NNW 13.8 mph 21.9 mph N/A   Scattered Clouds
8:35 PM 41.5 °F 34.2 °F 29.3 °F 62% 29.81 in 10.0 mi North 13.8 mph 21.9 mph N/A   Clear
8:55 PM 41.0 °F 34.7 °F 29.1 °F 63% 29.82 in 10.0 mi North 10.4 mph - N/A   Scattered Clouds
9:15 PM 40.3 °F 33.4 °F 29.1 °F 64% 29.84 in 10.0 mi North 11.5 mph - N/A   Mostly Cloudy
9:35 PM 41.2 °F 37.3 °F 28.0 °F 60% 29.86 in 10.0 mi East 5.8 mph - N/A   Mostly Cloudy
9:55 PM 41.0 °F 32.8 °F 22.3 °F 47% 29.87 in 10.0 mi ESE 16.1 mph 24.2 mph N/A   Overcast
10:15 PM 39.4 °F 29.8 °F 22.3 °F 50% 29.88 in 10.0 mi ESE 19.6 mph 31.1 mph N/A   Overcast
10:35 PM 37.8 °F 27.7 °F 23.0 °F 55% 29.89 in 10.0 mi ESE 19.6 mph 31.1 mph N/A   Overcast
10:55 PM 36.7 °F 25.4 °F 23.0 °F 58% 29.90 in 10.0 mi ESE 23.0 mph 29.9 mph N/A   Overcast
11:15 PM 35.6 °F 25.9 °F 22.8 °F 60% 29.91 in 10.0 mi ESE 16.1 mph 29.9 mph N/A   Overcast
11:35 PM 34.0 °F 21.5 °F 22.8 °F 64% 29.92 in 10.0 mi ESE 24.2 mph 36.8 mph N/A   Overcast
11:55 PM 32.9 °F 20.1 °F 22.6 °F 66% 29.92 in 10.0 mi ESE 24.2 mph 32.2 mph N/A   Overcast